Chantaco — FMLM — position and weather

sailwx.info

Track history (hours):
 
Tides and Currents Weather Stations Pressure Air Temp Water Temp Dewpoint Dewpoint Depression Visibility Wind Speed Wind Dir Waves Ship Positions

Chantaco

Last reported at 2014-Dec-20 11:32 UTC. Time now 2014-Dec-21 18:00 UTC.
Position N 50°35' E 000°18'.

Length 143 m; draft 6.7 m.

Type: Tanker. MMSI: 228330700.

Date/timePositionNaut miles runAvg speedWind from/ knotsBaromVisibWave heightAir tempDewpointWater temp
2014-Dec-20 11:32N 50°35' E 000°18'1212.0
2014-Dec-20 10:33N 50°39' E 000°35'1111.1
2014-Dec-20 09:33N 50°46' E 000°49'1210.8
2014-Dec-20 08:27N 50°52' E 001°05'1111.7
2014-Dec-20 07:33N 50°59' E 001°18'1414.5
2014-Dec-20 06:34N 51°08' E 001°36'1515.3
2014-Dec-20 05:34N 51°19' E 001°53'1111.4
2014-Dec-20 04:33N 51°23' E 002°10'2412.0
2014-Dec-20 02:32N 51°22' E 002°49'1212.3
2014-Dec-20 01:33N 51°24' E 003°08'1212.1
2014-Dec-20 00:33N 51°25' E 003°27'8 8.0
2014-Dec-19 23:33N 51°27' E 003°40'10 9.9
2014-Dec-19 22:33N 51°22' E 003°54'6 6.1
2014-Dec-19 21:34N 51°23' E 004°03'7 7.4
2014-Dec-19 20:34N 51°21' E 004°15'2 1.7
2014-Dec-19 19:34N 51°21' E 004°17'5 5.2
2014-Dec-19 18:34N 51°16' E 004°22'0 0.2
2014-Dec-19 17:31N 51°16' E 004°21'0 0.0
2014-Dec-19 16:31N 51°16' E 004°21'0 0.0
2014-Dec-19 15:31N 51°16' E 004°21'0 0.0
2014-Dec-19 14:31N 51°16' E 004°21'0 0.0
2014-Dec-19 13:31N 51°16' E 004°21'0 0.0
2014-Dec-19 12:31N 51°16' E 004°21'0 0.0
2014-Dec-19 11:31N 51°16' E 004°21'0 0.0
2014-Dec-19 10:31N 51°16' E 004°21'0 0.0
2014-Dec-19 09:31N 51°16' E 004°21'0 0.0
2014-Dec-19 08:31N 51°16' E 004°21'0 0.0
2014-Dec-19 07:28N 51°16' E 004°21'0 0.0
2014-Dec-19 06:31N 51°16' E 004°21'0 0.0
2014-Dec-19 05:31N 51°16' E 004°21'0 0.0
2014-Dec-19 04:28N 51°16' E 004°21'0 0.0
2014-Dec-19 03:31N 51°16' E 004°21'0 0.0
2014-Dec-19 02:31N 51°16' E 004°21'0 0.0
2014-Dec-19 01:31N 51°16' E 004°21'0 0.0
2014-Dec-19 00:28N 51°16' E 004°21'0 0.0
2014-Dec-18 23:28N 51°16' E 004°21'0 0.0
2014-Dec-18 22:28N 51°16' E 004°21'0 0.0
2014-Dec-18 21:31N 51°16' E 004°21'0 0.0
2014-Dec-18 20:31N 51°16' E 004°21'0 0.0
2014-Dec-18 19:31N 51°16' E 004°21'0 0.0
2014-Dec-18 18:25N 51°16' E 004°21'0 0.0
2014-Dec-18 17:31N 51°16' E 004°21'0 0.0
2014-Dec-18 16:28N 51°16' E 004°21'0 0.0
2014-Dec-18 15:31N 51°16' E 004°21'0 0.0
2014-Dec-18 14:31N 51°16' E 004°21'0 0.0
2014-Dec-18 13:28N 51°16' E 004°21'0 0.0
2014-Dec-18 12:31N 51°16' E 004°21'0 0.0
2014-Dec-18 11:28N 51°16' E 004°21'0 0.0
2014-Dec-18 10:28N 51°16' E 004°21'0 0.0
2014-Dec-18 09:28N 51°16' E 004°21'0 0.0
2014-Dec-18 08:28N 51°16' E 004°21'0 0.0
2014-Dec-18 07:33N 51°16' E 004°21'0 0.0
2014-Dec-18 06:33N 51°16' E 004°21'0 0.0
2014-Dec-18 05:33N 51°16' E 004°21'0 0.0
2014-Dec-18 04:33N 51°16' E 004°21'0 0.0
2014-Dec-18 03:33N 51°16' E 004°21'0 0.0
2014-Dec-18 02:33N 51°16' E 004°21'0 0.0
2014-Dec-18 01:33N 51°16' E 004°21'0 0.0
2014-Dec-18 00:30N 51°16' E 004°21'0 0.0
2014-Dec-17 23:30N 51°16' E 004°21'0 0.0
2014-Dec-17 22:30N 51°16' E 004°21'0 0.0
2014-Dec-17 21:33N 51°16' E 004°21'0 0.0
2014-Dec-17 20:33N 51°16' E 004°21'0 0.0
2014-Dec-17 19:33N 51°16' E 004°21'1 1.0
2014-Dec-17 18:34N 51°17' E 004°20'1 0.8
2014-Dec-17 17:33N 51°17' E 004°19'8 7.7
2014-Dec-17 16:33N 51°24' E 004°12'9 8.7
2014-Dec-17 15:33N 51°26' E 003°59'9 9.1
2014-Dec-17 14:33N 51°22' E 003°46'9 9.0
2014-Dec-17 13:33N 51°26' E 003°33'1010.0
2014-Dec-17 12:33N 51°24' E 003°17'1110.6
2014-Dec-17 11:33N 51°26' E 002°60'1111.2
2014-Dec-17 10:33N 51°36' E 003°10'1010.0
2014-Dec-17 09:33N 51°45' E 003°15'3 2.5
2014-Dec-17 08:28N 51°47' E 003°19'0 0.0
2014-Dec-17 07:31N 51°47' E 003°19'0 0.0
2014-Dec-17 06:31N 51°47' E 003°19'0 0.0
2014-Dec-17 05:31N 51°47' E 003°18'0 0.0
2014-Dec-17 04:31N 51°47' E 003°19'0 0.0
2014-Dec-17 03:28N 51°47' E 003°18'0 0.0
2014-Dec-17 02:13N 51°47' E 003°19'0 0.0
2014-Dec-17 01:25N 51°47' E 003°19'0 0.0
2014-Dec-17 00:16N 51°47' E 003°19'0 0.0
2014-Dec-16 23:26N 51°47' E 003°19'0 0.1
2014-Dec-16 22:30N 51°47' E 003°18'8 8.8
2014-Dec-16 21:34N 51°55' E 003°19'13610.4
2014-Dec-16 08:30N 54°03' E 004°36'1010.6
2014-Dec-16 07:33N 54°04' E 004°53'1110.8
2014-Dec-16 06:30N 54°06' E 005°12'1110.6
2014-Dec-16 05:25N 54°07' E 005°31'1010.6
2014-Dec-16 04:30N 54°09' E 005°48'1210.3
2014-Dec-16 03:22N 54°10' E 006°07'3310.3
2014-Dec-16 00:07N 54°12' E 007°05'611.2
2014-Dec-15 23:33N 54°12' E 007°15'1111.4
2014-Dec-15 22:33N 54°12' E 007°35'1212.2
2014-Dec-15 21:33N 54°06' E 007°53'1110.6
2014-Dec-15 20:33N 54°01' E 008°09'1212.3
2014-Dec-15 19:34N 53°59' E 008°29'1111.3
2014-Dec-15 18:33N 53°52' E 008°45'10 9.6
2014-Dec-15 17:33N 53°51' E 009°01'5 5.1
2014-Dec-15 16:33N 53°54' E 009°09'2 1.8
2014-Dec-15 15:33N 53°55' E 009°11'7 6.8
2014-Dec-15 14:33N 54°00' E 009°18'7 6.8
2014-Dec-15 13:33N 54°07' E 009°20'2 2.3
2014-Dec-15 12:33N 54°09' E 009°22'6 6.3
2014-Dec-15 11:33N 54°12' E 009°32'8 5.9
2014-Dec-15 10:10N 54°18' E 009°41'3 4.4
2014-Dec-15 09:33N 54°20' E 009°44'6 5.6
2014-Dec-15 08:33N 54°21' E 009°53'5 5.4
2014-Dec-15 07:33N 54°22' E 010°02'3 3.0
2014-Dec-15 06:34N 54°22' E 010°07'1 0.7
2014-Dec-15 05:33N 54°22' E 010°09'2 2.0
2014-Dec-15 04:34N 54°23' E 010°11'9 9.3
2014-Dec-15 03:33N 54°31' E 010°21'1211.3
2014-Dec-15 02:32N 54°35' E 010°39'3610.8
2014-Dec-14 23:15N 54°28' E 011°39'1111.3
2014-Dec-14 22:15N 54°27' E 011°59'811.2
2014-Dec-14 21:33N 54°28' E 012°12'5611.2
2014-Dec-14 16:33N 54°58' E 013°34'1111.6
2014-Dec-14 15:33N 55°02' E 013°53'9 9.1
2014-Dec-14 14:33N 55°06' E 014°07'8 7.6
2014-Dec-14 13:33N 55°12' E 014°15'8 7.6
2014-Dec-14 12:33N 55°18' E 014°23'7 7.5
2014-Dec-14 11:34N 55°24' E 014°31'7 7.2
2014-Dec-14 10:33N 55°29' E 014°41'8 8.0
2014-Dec-14 09:33N 55°32' E 014°54'1312.5
2014-Dec-14 08:33N 55°39' E 015°13'36010.6
2014-Dec-12 22:31N 59°39' E 023°34'1212.5
2014-Dec-12 21:33N 59°43' E 023°56'  
Track history (hours):
 
Tides and Currents Weather Stations Pressure Air Temp Water Temp Dewpoint Dewpoint Depression Visibility Wind Speed Wind Dir Waves Ship Positions

Chantaco

Last reported at 2014-Dec-20 11:32 UTC. Time now 2014-Dec-21 18:00 UTC.
Position N 50°35' E 000°18'.

Length 143 m; draft 6.7 m.

Type: Tanker. MMSI: 228330700.

Date/timePositionNaut miles runAvg speedWind from/ knotsBaromVisibWave heightAir tempDewpointWater temp
2014-Dec-20 11:32N 50°35' E 000°18'1212.0
2014-Dec-20 10:33N 50°39' E 000°35'1111.1
2014-Dec-20 09:33N 50°46' E 000°49'1210.8
2014-Dec-20 08:27N 50°52' E 001°05'1111.7
2014-Dec-20 07:33N 50°59' E 001°18'1414.5
2014-Dec-20 06:34N 51°08' E 001°36'1515.3
2014-Dec-20 05:34N 51°19' E 001°53'1111.4
2014-Dec-20 04:33N 51°23' E 002°10'2412.0
2014-Dec-20 02:32N 51°22' E 002°49'1212.3
2014-Dec-20 01:33N 51°24' E 003°08'1212.1
2014-Dec-20 00:33N 51°25' E 003°27'8 8.0
2014-Dec-19 23:33N 51°27' E 003°40'10 9.9
2014-Dec-19 22:33N 51°22' E 003°54'6 6.1
2014-Dec-19 21:34N 51°23' E 004°03'7 7.4
2014-Dec-19 20:34N 51°21' E 004°15'2 1.7
2014-Dec-19 19:34N 51°21' E 004°17'5 5.2
2014-Dec-19 18:34N 51°16' E 004°22'0 0.2
2014-Dec-19 17:31N 51°16' E 004°21'0 0.0
2014-Dec-19 16:31N 51°16' E 004°21'0 0.0
2014-Dec-19 15:31N 51°16' E 004°21'0 0.0
2014-Dec-19 14:31N 51°16' E 004°21'0 0.0
2014-Dec-19 13:31N 51°16' E 004°21'0 0.0
2014-Dec-19 12:31N 51°16' E 004°21'0 0.0
2014-Dec-19 11:31N 51°16' E 004°21'0 0.0
2014-Dec-19 10:31N 51°16' E 004°21'0 0.0
2014-Dec-19 09:31N 51°16' E 004°21'0 0.0
2014-Dec-19 08:31N 51°16' E 004°21'0 0.0
2014-Dec-19 07:28N 51°16' E 004°21'0 0.0
2014-Dec-19 06:31N 51°16' E 004°21'0 0.0
2014-Dec-19 05:31N 51°16' E 004°21'0 0.0
2014-Dec-19 04:28N 51°16' E 004°21'0 0.0
2014-Dec-19 03:31N 51°16' E 004°21'0 0.0
2014-Dec-19 02:31N 51°16' E 004°21'0 0.0
2014-Dec-19 01:31N 51°16' E 004°21'0 0.0
2014-Dec-19 00:28N 51°16' E 004°21'0 0.0
2014-Dec-18 23:28N 51°16' E 004°21'0 0.0
2014-Dec-18 22:28N 51°16' E 004°21'0 0.0
2014-Dec-18 21:31N 51°16' E 004°21'0 0.0
2014-Dec-18 20:31N 51°16' E 004°21'0 0.0
2014-Dec-18 19:31N 51°16' E 004°21'0 0.0
2014-Dec-18 18:25N 51°16' E 004°21'0 0.0
2014-Dec-18 17:31N 51°16' E 004°21'0 0.0
2014-Dec-18 16:28N 51°16' E 004°21'0 0.0
2014-Dec-18 15:31N 51°16' E 004°21'0 0.0
2014-Dec-18 14:31N 51°16' E 004°21'0 0.0
2014-Dec-18 13:28N 51°16' E 004°21'0 0.0
2014-Dec-18 12:31N 51°16' E 004°21'0 0.0
2014-Dec-18 11:28N 51°16' E 004°21'0 0.0
2014-Dec-18 10:28N 51°16' E 004°21'0 0.0
2014-Dec-18 09:28N 51°16' E 004°21'0 0.0
2014-Dec-18 08:28N 51°16' E 004°21'0 0.0
2014-Dec-18 07:33N 51°16' E 004°21'0 0.0
2014-Dec-18 06:33N 51°16' E 004°21'0 0.0
2014-Dec-18 05:33N 51°16' E 004°21'0 0.0
2014-Dec-18 04:33N 51°16' E 004°21'0 0.0
2014-Dec-18 03:33N 51°16' E 004°21'0 0.0
2014-Dec-18 02:33N 51°16' E 004°21'0 0.0
2014-Dec-18 01:33N 51°16' E 004°21'0 0.0
2014-Dec-18 00:30N 51°16' E 004°21'0 0.0
2014-Dec-17 23:30N 51°16' E 004°21'0 0.0
2014-Dec-17 22:30N 51°16' E 004°21'0 0.0
2014-Dec-17 21:33N 51°16' E 004°21'0 0.0
2014-Dec-17 20:33N 51°16' E 004°21'0 0.0
2014-Dec-17 19:33N 51°16' E 004°21'1 1.0
2014-Dec-17 18:34N 51°17' E 004°20'1 0.8
2014-Dec-17 17:33N 51°17' E 004°19'8 7.7
2014-Dec-17 16:33N 51°24' E 004°12'9 8.7
2014-Dec-17 15:33N 51°26' E 003°59'9 9.1
2014-Dec-17 14:33N 51°22' E 003°46'9 9.0
2014-Dec-17 13:33N 51°26' E 003°33'1010.0
2014-Dec-17 12:33N 51°24' E 003°17'1110.6
2014-Dec-17 11:33N 51°26' E 002°60'1111.2
2014-Dec-17 10:33N 51°36' E 003°10'1010.0
2014-Dec-17 09:33N 51°45' E 003°15'3 2.5
2014-Dec-17 08:28N 51°47' E 003°19'0 0.0
2014-Dec-17 07:31N 51°47' E 003°19'0 0.0
2014-Dec-17 06:31N 51°47' E 003°19'0 0.0
2014-Dec-17 05:31N 51°47' E 003°18'0 0.0
2014-Dec-17 04:31N 51°47' E 003°19'0 0.0
2014-Dec-17 03:28N 51°47' E 003°18'0 0.0
2014-Dec-17 02:13N 51°47' E 003°19'0 0.0
2014-Dec-17 01:25N 51°47' E 003°19'0 0.0
2014-Dec-17 00:16N 51°47' E 003°19'0 0.0
2014-Dec-16 23:26N 51°47' E 003°19'0 0.1
2014-Dec-16 22:30N 51°47' E 003°18'8 8.8
2014-Dec-16 21:34N 51°55' E 003°19'13610.4
2014-Dec-16 08:30N 54°03' E 004°36'1010.6
2014-Dec-16 07:33N 54°04' E 004°53'1110.8
2014-Dec-16 06:30N 54°06' E 005°12'1110.6
2014-Dec-16 05:25N 54°07' E 005°31'1010.6
2014-Dec-16 04:30N 54°09' E 005°48'1210.3
2014-Dec-16 03:22N 54°10' E 006°07'3310.3
2014-Dec-16 00:07N 54°12' E 007°05'611.2
2014-Dec-15 23:33N 54°12' E 007°15'1111.4
2014-Dec-15 22:33N 54°12' E 007°35'1212.2
2014-Dec-15 21:33N 54°06' E 007°53'1110.6
2014-Dec-15 20:33N 54°01' E 008°09'1212.3
2014-Dec-15 19:34N 53°59' E 008°29'1111.3
2014-Dec-15 18:33N 53°52' E 008°45'10 9.6
2014-Dec-15 17:33N 53°51' E 009°01'5 5.1
2014-Dec-15 16:33N 53°54' E 009°09'2 1.8
2014-Dec-15 15:33N 53°55' E 009°11'7 6.8
2014-Dec-15 14:33N 54°00' E 009°18'7 6.8
2014-Dec-15 13:33N 54°07' E 009°20'2 2.3
2014-Dec-15 12:33N 54°09' E 009°22'6 6.3
2014-Dec-15 11:33N 54°12' E 009°32'8 5.9
2014-Dec-15 10:10N 54°18' E 009°41'3 4.4
2014-Dec-15 09:33N 54°20' E 009°44'6 5.6
2014-Dec-15 08:33N 54°21' E 009°53'5 5.4
2014-Dec-15 07:33N 54°22' E 010°02'3 3.0
2014-Dec-15 06:34N 54°22' E 010°07'1 0.7
2014-Dec-15 05:33N 54°22' E 010°09'2 2.0
2014-Dec-15 04:34N 54°23' E 010°11'9 9.3
2014-Dec-15 03:33N 54°31' E 010°21'1211.3
2014-Dec-15 02:32N 54°35' E 010°39'3610.8
2014-Dec-14 23:15N 54°28' E 011°39'1111.3
2014-Dec-14 22:15N 54°27' E 011°59'811.2
2014-Dec-14 21:33N 54°28' E 012°12'5611.2
2014-Dec-14 16:33N 54°58' E 013°34'1111.6
2014-Dec-14 15:33N 55°02' E 013°53'9 9.1
2014-Dec-14 14:33N 55°06' E 014°07'8 7.6
2014-Dec-14 13:33N 55°12' E 014°15'8 7.6
2014-Dec-14 12:33N 55°18' E 014°23'7 7.5
2014-Dec-14 11:34N 55°24' E 014°31'7 7.2
2014-Dec-14 10:33N 55°29' E 014°41'8 8.0
2014-Dec-14 09:33N 55°32' E 014°54'1312.5
2014-Dec-14 08:33N 55°39' E 015°13'36010.6
2014-Dec-12 22:31N 59°39' E 023°34'1212.5
2014-Dec-12 21:33N 59°43' E 023°56'  

Dump ship's entire track history